Terminal Aerodrome Forecast
Issued by NWS

Home | Current Version | Previous Version | Text Only | Print | Product List | Glossary On
Versions: 1 2 3 4 5 6 7 8 9 10 11 12
000
FTPQ31 PGUM 011741
TAFGUM
TAF

TAF
PTYA 011741Z 0118/0218 07012KT P6SM VCSH FEW016 SCT040 SCT140=

USA.gov is the U.S. government's official web portal to all federal, state and local government web resources and services.